Time;durP1;ratioP1;P1;durP2;ratioP2;P2;SDS_P1;SDS_P2;PMS_P1;PMS_P2;Temp;Humidity;BMP_temperature;BMP_pressure;BME280_temperature;BME280_humidity;BME280_pressure;Samples;Min_cycle;Max_cycle;Signal;HPM_P1;HPM_P2
2023/06/04 00:09:52;;;;;;;2.83;0.57;;;14.20;1.00;;;;;;20882382;28;20468;-39
2023/06/04 00:19:53;;;;;;;2.60;0.65;;;14.00;1.00;;;;;;20867238;28;20048;-39
2023/06/04 00:29:54;;;;;;;2.50;0.52;;;13.90;1.00;;;;;;20885863;28;20040;-39
2023/06/04 00:40:16;;;;;;;2.63;0.65;;;13.70;1.00;;;;;;20890232;28;20123;-42
2023/06/04 00:50:18;;;;;;;2.10;0.50;;;13.70;1.00;;;;;;20885128;28;20040;-39
2023/06/04 01:00:23;;;;;;;2.67;0.95;;;13.50;1.00;;;;;;20877198;28;20127;-42
2023/06/04 01:10:24;;;;;;;1.58;0.85;;;13.40;1.00;;;;;;20883946;28;20468;-42
2023/06/04 01:20:36;;;;;;;3.50;0.60;;;13.30;1.00;;;;;;20883932;28;20052;-42
2023/06/04 01:30:59;;;;;;;2.50;0.88;;;13.20;1.00;;;;;;20845971;28;20111;-42
2023/06/04 01:41:02;;;;;;;1.40;0.50;;;13.20;1.00;;;;;;20885464;28;20421;-42
2023/06/04 01:51:03;;;;;;;1.55;0.60;;;13.20;1.00;;;;;;20885721;28;20047;-41
2023/06/04 02:01:05;;;;;;;2.55;0.50;;;13.20;1.00;;;;;;20890042;28;20057;-42
2023/06/04 02:11:06;;;;;;;1.35;0.43;;;13.10;1.00;;;;;;20897501;28;20055;-41
2023/06/04 02:21:07;;;;;;;1.95;0.55;;;13.00;1.00;;;;;;20892905;28;20045;-41
2023/06/04 02:41:19;;;;;;;1.75;0.40;;;12.80;1.00;;;;;;21475204;22;20121;-84
2023/06/04 02:51:22;;;;;;;1.38;0.43;;;12.80;1.00;;;;;;20892661;28;20040;-82
2023/06/04 03:01:26;;;;;;;1.25;0.40;;;12.70;1.00;;;;;;20900534;28;20045;-83
2023/06/04 03:11:27;;;;;;;1.52;0.60;;;12.60;1.00;;;;;;20906369;28;20032;-83
2023/06/04 03:21:30;;;;;;;3.33;0.60;;;12.50;1.00;;;;;;20919304;28;20487;-82
2023/06/04 03:31:32;;;;;;;1.45;0.55;;;12.50;1.00;;;;;;20908501;28;20029;-83
2023/06/04 03:41:33;;;;;;;1.17;0.38;;;12.40;1.00;;;;;;20851779;28;20513;-82
2023/06/04 03:51:38;;;;;;;1.25;0.65;;;12.30;1.00;;;;;;20839293;28;20043;-83
2023/06/04 04:01:40;;;;;;;2.05;0.70;;;12.30;1.00;;;;;;20827799;28;20476;-82
2023/06/04 04:11:42;;;;;;;1.95;0.90;;;12.20;1.00;;;;;;20849310;28;20048;-83
2023/06/04 04:22:03;;;;;;;2.08;0.60;;;12.30;1.00;;;;;;20846587;28;20072;-82
2023/06/04 04:32:24;;;;;;;3.15;0.70;;;12.30;1.00;;;;;;20859122;28;20029;-82
2023/06/04 04:42:46;;;;;;;1.83;0.80;;;12.30;1.00;;;;;;20877928;28;20182;-84
2023/06/04 04:53:07;;;;;;;3.35;1.13;;;12.40;1.00;;;;;;20881675;28;20091;-82
2023/06/04 05:03:28;;;;;;;3.70;0.88;;;12.60;1.00;;;;;;20843241;28;20044;-84
2023/06/04 05:13:49;;;;;;;3.05;0.80;;;12.80;1.00;;;;;;20839290;28;20094;-84
2023/06/04 05:24:10;;;;;;;1.45;0.63;;;13.20;1.00;;;;;;20824572;28;20562;-83
2023/06/04 05:34:32;;;;;;;2.85;0.80;;;13.40;1.00;;;;;;20805021;28;20114;-82
2023/06/04 05:44:38;;;;;;;1.88;0.82;;;13.70;1.00;;;;;;20821950;28;20044;-82
2023/06/04 05:54:40;;;;;;;2.90;1.00;;;14.00;1.00;;;;;;20842086;28;20033;-82
2023/06/04 06:04:41;;;;;;;1.88;0.88;;;14.30;1.00;;;;;;20846683;28;20072;-79
2023/06/04 06:14:43;;;;;;;3.90;1.60;;;14.50;1.00;;;;;;20831078;28;20037;-81
2023/06/04 06:24:44;;;;;;;2.80;1.05;;;14.90;1.00;;;;;;20826741;28;20723;-79
2023/06/04 06:34:45;;;;;;;5.20;1.20;;;15.10;1.00;;;;;;20859209;28;20052;-78
2023/06/04 06:44:47;;;;;;;3.42;1.05;;;15.50;1.00;;;;;;20843375;28;20041;-81
2023/06/04 06:54:48;;;;;;;3.15;0.80;;;15.70;1.00;;;;;;20822443;28;20588;-79
2023/06/04 07:04:49;;;;;;;2.47;0.80;;;16.00;1.00;;;;;;20816500;28;20052;-80
2023/06/04 07:14:50;;;;;;;4.03;0.80;;;16.30;1.00;;;;;;20813243;28;20041;-81
2023/06/04 07:24:51;;;;;;;1.00;0.30;;;16.60;1.00;;;;;;20829919;28;20045;-80
2023/06/04 07:35:02;;;;;;;1.42;0.68;;;16.80;1.00;;;;;;20820723;28;20068;-83
2023/06/04 07:45:04;;;;;;;0.90;0.40;;;16.90;1.00;;;;;;20840985;28;20061;-79
2023/06/04 07:55:08;;;;;;;2.58;0.73;;;17.10;1.00;;;;;;20815931;28;20040;-81
2023/06/04 08:05:09;;;;;;;1.95;0.40;;;17.20;1.00;;;;;;20829690;28;20368;-82
2023/06/04 08:15:11;;;;;;;1.98;0.70;;;17.20;1.00;;;;;;20830541;28;20559;-79
2023/06/04 08:25:14;;;;;;;1.45;0.60;;;17.50;1.00;;;;;;20775756;28;20529;-77
2023/06/04 08:35:15;;;;;;;1.38;0.50;;;17.60;1.00;;;;;;20835179;28;20499;-84
2023/06/04 08:45:20;;;;;;;2.13;0.35;;;17.80;1.00;;;;;;20832274;28;20037;-87
2023/06/04 08:55:41;;;;;;;4.90;0.50;;;18.20;1.00;;;;;;20824816;28;20041;-79
2023/06/04 09:06:02;;;;;;;4.22;0.70;;;18.60;1.00;;;;;;20868061;28;20166;-79
2023/06/04 09:16:05;;;;;;;1.48;0.70;;;18.90;1.00;;;;;;20805057;28;20040;-85
2023/06/04 09:26:09;;;;;;;2.38;0.90;;;19.20;1.00;;;;;;20837265;28;20057;-85
2023/06/04 09:36:16;;;;;;;1.30;0.50;;;19.20;1.00;;;;;;20776885;28;20048;-82
2023/06/04 09:46:17;;;;;;;1.75;0.85;;;19.40;1.00;;;;;;20845757;28;20055;-85
2023/06/04 09:56:18;;;;;;;2.75;0.60;;;19.60;1.00;;;;;;20848954;28;20040;-81
2023/06/04 10:06:21;;;;;;;4.05;1.45;;;19.80;1.00;;;;;;20836022;28;20033;-85
2023/06/04 10:16:42;;;;;;;1.80;0.70;;;20.10;1.00;;;;;;20831264;28;20060;-83
2023/06/04 10:26:44;;;;;;;3.00;1.05;;;20.30;1.00;;;;;;20822397;28;20033;-82
2023/06/04 10:36:45;;;;;;;3.03;0.90;;;20.50;1.00;;;;;;20844112;28;20055;-86
2023/06/04 10:46:46;;;;;;;2.67;0.93;;;20.50;1.00;;;;;;20882735;28;20053;-84
2023/06/04 10:57:15;;;;;;;3.15;0.85;;;20.50;1.00;;;;;;20880560;28;20056;-86
2023/06/04 11:07:43;;;;;;;8.63;1.90;;;20.60;1.00;;;;;;20869215;28;20049;-87
2023/06/04 11:17:52;;;;;;;4.85;1.52;;;20.80;1.00;;;;;;20864008;28;20040;-83
2023/06/04 11:27:55;;;;;;;5.18;1.52;;;20.80;1.00;;;;;;20860427;28;20042;-81
2023/06/04 11:37:58;;;;;;;2.60;1.20;;;20.80;1.00;;;;;;20806476;28;20033;-80
2023/06/04 11:47:59;;;;;;;2.55;0.80;;;21.00;1.00;;;;;;20806318;28;20539;-80
2023/06/04 11:58:01;;;;;;;3.78;1.42;;;21.00;1.00;;;;;;20820824;28;20033;-80
2023/06/04 12:08:10;;;;;;;2.25;1.00;;;21.00;1.00;;;;;;20826106;28;20064;-80
2023/06/04 12:18:11;;;;;;;2.10;1.00;;;21.30;1.00;;;;;;20845331;28;21003;-79
2023/06/04 12:28:19;;;;;;;2.28;0.90;;;21.20;1.00;;;;;;20799676;28;20045;-81
2023/06/04 12:38:24;;;;;;;3.42;0.70;;;21.50;1.00;;;;;;20807839;28;20543;-78
2023/06/04 12:48:33;;;;;;;1.75;1.00;;;21.40;1.00;;;;;;20817327;28;20497;-79
2023/06/04 12:58:54;;;;;;;3.67;0.77;;;21.80;1.00;;;;;;20775812;28;20957;-81
2023/06/04 13:08:55;;;;;;;2.42;1.05;;;21.50;1.00;;;;;;20839056;28;20041;-78
2023/06/04 13:18:56;;;;;;;2.05;0.50;;;21.50;1.00;;;;;;20856872;28;20038;-79
2023/06/04 13:29:22;;;;;;;1.90;0.57;;;21.60;1.00;;;;;;20840537;28;20033;-78
2023/06/04 13:39:42;;;;;;;1.95;0.52;;;21.60;1.00;;;;;;20837102;28;20033;-79
2023/06/04 13:50:04;;;;;;;2.00;0.60;;;21.50;1.00;;;;;;20775906;28;20053;-77
2023/06/04 14:00:07;;;;;;;2.83;0.73;;;21.90;1.00;;;;;;20789963;28;20040;-76
2023/06/04 14:10:10;;;;;;;1.15;0.43;;;21.50;1.00;;;;;;20790252;28;20117;-75
2023/06/04 14:20:31;;;;;;;1.65;0.85;;;21.30;1.00;;;;;;20859120;28;22470;-79
2023/06/04 14:30:52;;;;;;;4.25;1.15;;;21.10;1.00;;;;;;20840906;28;20116;-81
2023/06/04 14:40:59;;;;;;;2.22;0.82;;;21.10;1.00;;;;;;20838529;28;20056;-76
2023/06/04 14:51:00;;;;;;;1.30;0.60;;;21.00;1.00;;;;;;20838737;28;20041;-76
2023/06/04 15:01:03;;;;;;;3.72;1.20;;;21.10;1.00;;;;;;20820151;28;20051;-77
2023/06/04 15:11:25;;;;;;;3.63;0.80;;;20.80;1.00;;;;;;20839556;28;20044;-78
2023/06/04 15:21:46;;;;;;;3.72;1.00;;;20.80;1.00;;;;;;20806889;28;20102;-77
2023/06/04 15:31:52;;;;;;;1.38;0.60;;;20.80;1.00;;;;;;20797686;28;20048;-78
2023/06/04 15:41:55;;;;;;;3.47;1.35;;;20.80;1.00;;;;;;20799373;28;20098;-77
2023/06/04 15:52:19;;;;;;;2.20;0.80;;;20.80;1.00;;;;;;20815813;28;20391;-77
2023/06/04 16:02:23;;;;;;;2.00;0.77;;;20.50;1.00;;;;;;20803908;28;20467;-79
2023/06/04 16:12:44;;;;;;;5.22;1.25;;;20.40;1.00;;;;;;20826391;28;20041;-76
2023/06/04 16:23:05;;;;;;;1.40;0.52;;;20.30;1.00;;;;;;20761845;28;20049;-75
2023/06/04 16:33:09;;;;;;;3.80;1.30;;;20.10;1.00;;;;;;20813703;28;20373;-77
2023/06/04 16:43:30;;;;;;;1.92;0.90;;;19.90;1.00;;;;;;20814051;28;21274;-76
2023/06/04 16:53:51;;;;;;;1.60;0.65;;;19.70;1.00;;;;;;20831472;28;20075;-83
2023/06/04 17:04:12;;;;;;;2.45;1.00;;;19.40;1.00;;;;;;20859009;28;20037;-75
2023/06/04 17:14:34;;;;;;;2.70;0.73;;;19.20;1.00;;;;;;20815164;28;20033;-79
2023/06/04 17:24:55;;;;;;;4.97;1.00;;;19.00;1.00;;;;;;20846171;28;20122;-77
2023/06/04 17:35:09;;;;;;;3.45;0.95;;;18.70;1.00;;;;;;20847959;28;20044;-78
2023/06/04 17:45:30;;;;;;;4.68;1.05;;;18.50;1.00;;;;;;20870538;28;20049;-81
2023/06/04 17:55:52;;;;;;;3.03;1.30;;;18.60;1.00;;;;;;20833106;28;20134;-77
2023/06/04 18:06:10;;;;;;;2.35;0.70;;;18.40;1.00;;;;;;20789440;28;22050;-77
2023/06/04 18:16:31;;;;;;;7.95;1.23;;;18.10;1.00;;;;;;20831443;28;20033;-80
2023/06/04 18:26:35;;;;;;;2.65;1.27;;;18.00;1.00;;;;;;20874071;28;20063;-78
2023/06/04 18:36:57;;;;;;;2.65;1.08;;;17.80;1.00;;;;;;20830748;28;20596;-78
2023/06/04 18:47:07;;;;;;;2.30;0.82;;;17.60;1.00;;;;;;20866785;28;20053;-78
2023/06/04 18:57:28;;;;;;;3.28;1.00;;;17.40;1.00;;;;;;20887424;28;20468;-77
2023/06/04 19:07:50;;;;;;;3.35;1.00;;;17.30;1.00;;;;;;20856797;28;20048;-79
2023/06/04 19:18:11;;;;;;;1.70;0.93;;;17.10;1.00;;;;;;20876713;28;20037;-78
2023/06/04 19:28:32;;;;;;;2.35;1.25;;;16.90;1.00;;;;;;20857072;28;20049;-79
2023/06/04 19:38:53;;;;;;;1.70;0.98;;;16.70;1.00;;;;;;20855906;28;20040;-79
2023/06/04 19:49:16;;;;;;;3.40;1.30;;;16.50;1.00;;;;;;20870170;28;20118;-77
2023/06/04 19:59:39;;;;;;;2.85;1.67;;;16.40;1.00;;;;;;20885006;28;20033;-79
2023/06/04 20:10:03;;;;;;;3.55;1.30;;;16.20;1.00;;;;;;20879473;28;20041;-78
2023/06/04 20:20:25;;;;;;;3.13;1.20;;;15.90;1.00;;;;;;20880701;28;20638;-77
2023/06/04 20:30:46;;;;;;;3.50;1.50;;;15.90;1.00;;;;;;20872898;28;20067;-80
2023/06/04 20:41:07;;;;;;;4.22;1.25;;;15.70;1.00;;;;;;20874736;28;20040;-82
2023/06/04 20:51:29;;;;;;;4.07;1.58;;;15.50;1.00;;;;;;20857147;28;20484;-78
2023/06/04 21:01:50;;;;;;;3.50;1.05;;;15.30;1.00;;;;;;20884132;28;20091;-79
2023/06/04 21:12:11;;;;;;;2.65;1.30;;;15.30;1.00;;;;;;20882105;28;20549;-77
2023/06/04 21:22:32;;;;;;;4.80;1.27;;;15.20;1.00;;;;;;20892698;28;20119;-79
2023/06/04 21:32:53;;;;;;;2.03;1.27;;;15.10;1.00;;;;;;20911446;28;20033;-77
2023/06/04 21:43:15;;;;;;;1.98;1.10;;;14.90;1.00;;;;;;20842179;28;20036;-81
2023/06/04 21:53:37;;;;;;;4.45;1.52;;;14.70;1.00;;;;;;20894335;28;20095;-80
2023/06/04 22:03:58;;;;;;;4.70;1.52;;;14.70;1.00;;;;;;20924107;28;20715;-84
2023/06/04 22:14:19;;;;;;;3.55;1.80;;;14.60;1.00;;;;;;20937749;28;20037;-88
2023/06/04 22:24:41;;;;;;;3.60;1.70;;;14.40;1.00;;;;;;20930790;28;20182;-85
2023/06/04 22:35:05;;;;;;;2.80;1.40;;;14.20;1.00;;;;;;20920649;28;20040;-83
2023/06/04 22:45:26;;;;;;;2.45;1.38;;;14.10;1.00;;;;;;20958456;28;20041;-87
2023/06/04 22:55:48;;;;;;;2.67;1.55;;;13.90;1.00;;;;;;20966340;28;20025;-84
2023/06/04 23:06:10;;;;;;;2.30;1.27;;;13.80;1.00;;;;;;20963099;28;20044;-83
2023/06/04 23:16:31;;;;;;;4.38;1.60;;;13.60;1.00;;;;;;20965549;28;20081;-85
2023/06/04 23:26:52;;;;;;;4.30;1.42;;;13.50;1.00;;;;;;20952938;28;20051;-85
2023/06/04 23:37:13;;;;;;;5.43;2.65;;;13.30;1.00;;;;;;20960200;28;20036;-81
2023/06/04 23:47:35;;;;;;;4.32;1.65;;;13.20;1.00;;;;;;20976404;28;20037;-83
2023/06/04 23:58:00;;;;;;;8.02;2.30;;;13.10;1.00;;;;;;20980276;28;20036;-80
